This is the latest recevied weather packets stored in our database for station/object R2AJV-13. If no packets are shown the sender has not sent any weather packets the latest 10 day(s).
| Time | Temp. | Humidity | Pressure | Rain* | Wind** | Luminosity | Snow |
|---|---|---|---|---|---|---|---|
| 1788694238 | 17.22° C | 70% | 988.9 hPa | 0 mm | - | - | - |
| 1788693326 | 18.33° C | 67% | 988.9 hPa | 0 mm | - | - | - |
| 1788692416 | 19.44° C | 64% | 988.7 hPa | 0 mm | - | - | - |
| 1788691566 | 17.78° C | 70% | 988.6 hPa | 0 mm | - | - | - |
| 1788690661 | 18.33° C | 68% | 988.6 hPa | 0 mm | - | - | - |
| 1788688849 | 17.22° C | 72% | 988.6 hPa | 0 mm | - | - | - |
| 1788687928 | 17.22° C | 74% | 988.3 hPa | 0 mm | - | - | - |
| 1788687034 | 16.67° C | 79% | 988.2 hPa | 0 mm | - | - | - |
| 1788686174 | 16.11° C | 80% | 988.3 hPa | 0 mm | - | - | - |
| 1788684325 | 16.11° C | 80% | 988 hPa | 0 mm | - | - | - |
| 1788682564 | 16.11° C | 80% | 988 hPa | 0 mm | - | - | - |
| 1788680743 | 13.89° C | 89% | 988 hPa | 0 mm | - | - | - |
| 1788679838 | 13.89° C | 92% | 987.9 hPa | 0 mm | - | - | - |
| 1788678928 | 13.89° C | 92% | 987.9 hPa | 0 mm | - | - | - |
| 1788678017 | 13.33° C | 93% | 987.8 hPa | 0 mm | - | - | - |
| 1788677166 | 12.78° C | 95% | 987.8 hPa | 0 mm | - | - | - |
| 1788676262 | 12.22° C | 97% | 987.6 hPa | 0 mm | - | - | - |
| 1788675350 | 11.67° C | 99% | 987.4 hPa | 0 mm | - | - | - |
| 1788674440 | 11.67° C | 99% | 987.4 hPa | 0 mm | - | - | - |
| 1788673529 | 11.11° C | 99% | 987.4 hPa | 0 mm | - | - | - |
| 1788672618 | 11.11° C | 99% | 987.3 hPa | 0 mm | - | - | - |
| 1788671774 | 10.56° C | 99% | 987.4 hPa | 0 mm | - | - | - |
| 1788670831 | 10.56° C | 99% | 987.2 hPa | 0 mm | - | - | - |
| 1788668165 | 10° C | 99% | 987.2 hPa | 0 mm | - | - | - |
| 1788666343 | 10° C | 99% | 987.1 hPa | 0 mm | - | - | - |
* Rain latest hour (hover to see other rain measurements)
** Current wind speed in m/s (hover to see current wind gust speed)